Time;durP1;ratioP1;P1;durP2;ratioP2;P2;SDS_P1;SDS_P2;PMS_P1;PMS_P2;Temp;Humidity;BMP_temperature;BMP_pressure;BME280_temperature;BME280_humidity;BME280_pressure;Samples;Min_cycle;Max_cycle;Signal;HPM_P1;HPM_P2
2021/12/20 00:01:30;;;;;;;12.07;2.00;;;0.40;70.10;;;;;;4144973;28;20111;-74
2021/12/20 00:03:31;;;;;;;15.15;2.97;;;0.40;70.10;;;;;;4146758;28;20030;-74
2021/12/20 00:05:31;;;;;;;8.25;1.85;;;0.40;70.10;;;;;;4146178;28;20034;-73
2021/12/20 00:07:32;;;;;;;8.68;1.63;;;0.40;70.00;;;;;;4146009;28;20109;-73
2021/12/20 00:09:32;;;;;;;12.00;2.45;;;0.40;70.00;;;;;;4161208;28;20395;-73
2021/12/20 00:11:33;;;;;;;12.27;1.80;;;0.40;69.80;;;;;;4135104;28;21226;-73
2021/12/20 00:13:34;;;;;;;10.30;1.70;;;0.40;69.70;;;;;;4146783;28;20034;-74
2021/12/20 00:15:34;;;;;;;7.93;1.58;;;0.40;69.80;;;;;;4149166;28;20420;-74
2021/12/20 00:17:35;;;;;;;15.68;2.20;;;0.40;69.80;;;;;;4154250;28;20049;-74
2021/12/20 00:19:36;;;;;;;12.60;1.95;;;0.40;69.80;;;;;;4133467;28;20030;-74
2021/12/20 00:21:37;;;;;;;7.85;1.60;;;0.40;69.80;;;;;;4151212;28;20117;-74
2021/12/20 00:23:38;;;;;;;13.70;1.85;;;0.40;69.80;;;;;;4150825;28;20072;-74
2021/12/20 00:25:38;;;;;;;6.95;1.38;;;0.40;69.70;;;;;;4167250;28;20033;-74
2021/12/20 00:27:39;;;;;;;7.53;1.95;;;0.40;69.70;;;;;;4149784;28;20029;-74
2021/12/20 00:29:39;;;;;;;4.60;1.40;;;0.40;69.70;;;;;;4124558;28;20456;-74
2021/12/20 00:31:40;;;;;;;10.45;1.67;;;0.30;69.40;;;;;;4149280;28;20048;-74
2021/12/20 00:33:40;;;;;;;10.63;1.73;;;0.40;69.30;;;;;;4151453;28;20060;-74
2021/12/20 00:35:41;;;;;;;13.85;1.60;;;0.40;69.20;;;;;;4167225;28;20087;-74
2021/12/20 00:42:20;;;;;;;8.10;1.77;;;0.40;69.00;;;;;;4162784;28;20485;-74
2021/12/20 00:44:21;;;;;;;6.03;1.30;;;0.40;68.80;;;;;;4166772;28;20029;-74
2021/12/20 00:46:22;;;;;;;5.07;1.17;;;0.50;68.70;;;;;;4149939;28;20029;-74
2021/12/20 00:48:22;;;;;;;4.97;1.23;;;0.50;68.50;;;;;;4151686;28;20022;-74
2021/12/20 00:50:23;;;;;;;7.47;1.40;;;0.50;68.20;;;;;;4149345;28;20534;-74
2021/12/20 00:52:25;;;;;;;9.38;1.10;;;0.60;67.90;;;;;;4151426;28;20045;-74
2021/12/20 00:54:25;;;;;;;5.47;1.20;;;0.60;67.80;;;;;;4157742;28;20053;-74
2021/12/20 00:56:26;;;;;;;9.43;1.83;;;0.60;67.50;;;;;;4166192;28;20056;-73
2021/12/20 00:58:27;;;;;;;8.13;1.30;;;0.70;67.20;;;;;;4156299;28;20040;-74
2021/12/20 01:00:30;;;;;;;8.82;1.63;;;0.70;67.20;;;;;;4149768;28;20818;-74
2021/12/20 01:02:31;;;;;;;6.47;1.83;;;0.70;67.00;;;;;;4150375;28;20025;-74
2021/12/20 01:04:31;;;;;;;6.90;1.38;;;0.70;66.80;;;;;;4173357;28;20051;-74
2021/12/20 01:06:32;;;;;;;8.43;1.00;;;0.60;66.80;;;;;;4149699;28;20088;-74
2021/12/20 01:08:38;;;;;;;9.20;1.40;;;0.60;66.90;;;;;;4148798;28;20033;-74
2021/12/20 01:10:44;;;;;;;8.07;1.10;;;0.60;67.00;;;;;;4149694;28;20644;-74
2021/12/20 01:12:47;;;;;;;11.70;2.13;;;0.60;67.10;;;;;;4145681;28;20038;-74
2021/12/20 01:14:57;;;;;;;6.93;1.10;;;0.50;67.00;;;;;;4149287;28;20121;-74
2021/12/20 01:17:03;;;;;;;14.50;1.52;;;0.50;67.30;;;;;;4150602;28;20076;-74
2021/12/20 01:19:04;;;;;;;9.18;1.13;;;0.50;67.30;;;;;;4164820;28;20037;-74
2021/12/20 01:21:04;;;;;;;4.20;0.95;;;0.50;67.30;;;;;;4166038;28;20503;-74
2021/12/20 01:23:05;;;;;;;4.75;1.27;;;0.40;67.20;;;;;;4153503;28;20036;-74
2021/12/20 01:25:06;;;;;;;5.20;1.35;;;0.40;67.20;;;;;;4170633;28;20033;-74
2021/12/20 01:27:07;;;;;;;8.05;1.42;;;0.30;67.30;;;;;;4150180;28;20026;-74
2021/12/20 01:29:07;;;;;;;11.15;1.33;;;0.30;67.40;;;;;;4131855;28;20041;-74
2021/12/20 01:31:08;;;;;;;10.63;1.60;;;0.30;67.50;;;;;;4165327;28;20037;-74
2021/12/20 01:33:11;;;;;;;14.07;1.83;;;0.20;67.70;;;;;;4149292;28;20050;-74
2021/12/20 01:35:12;;;;;;;5.60;1.58;;;0.20;68.10;;;;;;4137755;28;20030;-74
2021/12/20 01:37:13;;;;;;;7.75;1.35;;;0.20;68.30;;;;;;4164793;28;20430;-74
2021/12/20 01:39:13;;;;;;;6.10;1.48;;;0.20;68.40;;;;;;4132212;28;20664;-73
2021/12/20 01:41:14;;;;;;;9.48;1.60;;;0.10;68.40;;;;;;4149093;28;20045;-74
2021/12/20 01:43:16;;;;;;;8.85;1.40;;;0.10;68.50;;;;;;4149367;28;20660;-74
2021/12/20 01:45:18;;;;;;;10.55;1.40;;;0.10;68.70;;;;;;4122606;28;20077;-74
2021/12/20 01:47:19;;;;;;;4.22;1.23;;;0.10;68.80;;;;;;4140924;28;20060;-74
2021/12/20 01:49:20;;;;;;;5.25;1.23;;;0.10;68.80;;;;;;4166012;28;20116;-74
2021/12/20 01:53:40;;;;;;;7.28;1.50;;;0.10;68.90;;;;;;4160396;28;20037;-74
2021/12/20 01:55:40;;;;;;;8.73;1.40;;;0.10;69.30;;;;;;4138725;28;20037;-74
2021/12/20 01:57:41;;;;;;;8.45;1.80;;;0.10;69.50;;;;;;4148586;28;20029;-74
2021/12/20 01:59:42;;;;;;;9.13;1.23;;;0.00;69.60;;;;;;4171469;28;20037;-74
2021/12/20 02:01:44;;;;;;;10.48;1.65;;;0.00;69.70;;;;;;4150420;28;20033;-73
2021/12/20 02:03:48;;;;;;;7.78;1.20;;;0.10;69.80;;;;;;4165496;28;20112;-74
2021/12/20 02:05:54;;;;;;;13.55;2.08;;;0.10;69.90;;;;;;4133050;28;20037;-74
2021/12/20 02:08:01;;;;;;;6.80;1.10;;;0.10;70.00;;;;;;4155581;28;20072;-74
2021/12/20 02:10:02;;;;;;;9.90;2.10;;;0.10;70.10;;;;;;4164235;28;20191;-74
2021/12/20 02:12:02;;;;;;;11.73;1.50;;;0.10;70.10;;;;;;4148689;28;20064;-74
2021/12/20 02:14:04;;;;;;;11.05;1.50;;;0.10;70.10;;;;;;4148499;28;20056;-74
2021/12/20 02:16:05;;;;;;;14.18;1.60;;;0.10;70.20;;;;;;4149069;28;20643;-74
2021/12/20 02:18:06;;;;;;;12.32;1.73;;;0.10;70.30;;;;;;4138551;28;20061;-74
2021/12/20 02:20:07;;;;;;;10.80;1.35;;;0.10;70.30;;;;;;4154691;28;20595;-74
2021/12/20 02:22:07;;;;;;;11.38;1.85;;;0.10;70.20;;;;;;4147945;28;20121;-74
2021/12/20 02:24:08;;;;;;;9.57;2.22;;;0.10;70.20;;;;;;4165050;28;20103;-73
2021/12/20 02:26:14;;;;;;;5.63;1.48;;;0.10;70.10;;;;;;4149103;28;20048;-74
2021/12/20 02:28:16;;;;;;;8.70;1.63;;;0.10;70.00;;;;;;4162559;28;20025;-73
2021/12/20 02:37:29;;;;;;;11.68;1.52;;;0.00;70.20;;;;;;4151105;28;20116;-76
2021/12/20 02:39:30;;;;;;;7.78;1.85;;;0.00;70.10;;;;;;4136781;28;20037;-75
2021/12/20 02:41:33;;;;;;;10.63;1.85;;;-0.10;70.20;;;;;;4130082;28;20404;-76
2021/12/20 02:43:38;;;;;;;11.02;1.80;;;0.00;70.40;;;;;;4130825;28;20061;-76
2021/12/20 02:45:40;;;;;;;9.75;1.80;;;-0.10;70.30;;;;;;4116048;28;20034;-76
2021/12/20 02:47:43;;;;;;;8.43;1.80;;;0.00;70.60;;;;;;4130244;28;20041;-75
2021/12/20 02:49:44;;;;;;;10.63;1.95;;;-0.10;70.70;;;;;;4129995;28;20037;-76
2021/12/20 02:51:45;;;;;;;13.20;2.05;;;-0.10;70.80;;;;;;4114239;28;20038;-76
2021/12/20 02:53:46;;;;;;;8.23;1.40;;;-0.10;70.80;;;;;;4130953;28;20527;-75
2021/12/20 02:55:47;;;;;;;6.10;1.45;;;-0.10;70.90;;;;;;4131461;28;20030;-75
2021/12/20 02:57:48;;;;;;;11.45;1.63;;;-0.10;71.10;;;;;;4130868;28;20037;-75
2021/12/20 02:59:49;;;;;;;10.27;1.73;;;-0.10;71.20;;;;;;4115136;28;20110;-75
2021/12/20 03:01:58;;;;;;;10.25;2.10;;;-0.10;71.10;;;;;;4148611;28;20113;-75
2021/12/20 03:03:59;;;;;;;4.97;1.52;;;-0.10;71.10;;;;;;4146155;28;20535;-75
2021/12/20 03:06:13;;;;;;;4.30;1.40;;;-0.20;71.00;;;;;;4129968;28;20030;-75
2021/12/20 03:08:14;;;;;;;8.13;2.05;;;-0.20;71.10;;;;;;4100865;28;20034;-76
2021/12/20 03:10:15;;;;;;;8.55;1.38;;;-0.20;72.00;;;;;;4163044;28;20033;-75
2021/12/20 03:12:19;;;;;;;7.05;1.70;;;-0.20;71.40;;;;;;4113971;28;21054;-76
2021/12/20 03:14:26;;;;;;;13.18;1.67;;;-0.20;71.60;;;;;;4114586;28;20469;-75
2021/12/20 03:16:27;;;;;;;12.30;1.70;;;-0.20;71.70;;;;;;4148998;28;20029;-76
2021/12/20 03:18:28;;;;;;;7.13;1.65;;;-0.20;71.70;;;;;;4113788;28;20038;-76
2021/12/20 03:20:31;;;;;;;7.22;1.50;;;-0.30;71.70;;;;;;4146737;28;20038;-75
2021/12/20 03:22:32;;;;;;;;;;;-0.30;71.80;;;;;;4147165;28;20418;-76
2021/12/20 03:24:32;;;;;;;11.80;1.90;;;-0.30;72.00;;;;;;4146873;28;19965;-75
2021/12/20 03:26:33;;;;;;;8.73;1.35;;;-0.20;72.10;;;;;;4129892;28;20125;-76
2021/12/20 03:28:34;;;;;;;6.40;1.60;;;-0.30;72.00;;;;;;4146873;28;20057;-76
2021/12/20 03:30:35;;;;;;;9.48;1.60;;;-0.30;72.10;;;;;;4147760;28;20041;-76
2021/12/20 03:32:36;;;;;;;8.13;2.08;;;-0.30;72.20;;;;;;4130730;28;20065;-76
2021/12/20 03:34:40;;;;;;;10.77;1.85;;;-0.30;72.30;;;;;;4145777;28;20121;-76
2021/12/20 03:36:43;;;;;;;9.23;1.42;;;-0.30;72.40;;;;;;4153609;28;20126;-75
2021/12/20 03:38:46;;;;;;;7.88;1.45;;;-0.30;72.30;;;;;;4143794;28;20034;-76
2021/12/20 03:40:47;;;;;;;13.73;1.60;;;-0.30;72.20;;;;;;4111973;28;20058;-76
2021/12/20 03:42:47;;;;;;;12.60;1.73;;;-0.30;72.10;;;;;;4132432;28;20030;-76
2021/12/20 03:44:51;;;;;;;8.80;1.40;;;-0.30;71.90;;;;;;4128410;28;20057;-76
2021/12/20 03:46:52;;;;;;;7.25;1.27;;;-0.30;71.80;;;;;;4129764;28;20061;-76
2021/12/20 03:48:53;;;;;;;8.48;1.50;;;-0.30;71.70;;;;;;4147415;28;20025;-76
2021/12/20 03:50:54;;;;;;;3.97;1.30;;;-0.30;71.60;;;;;;4147830;28;20661;-76
2021/12/20 03:52:55;;;;;;;13.95;1.40;;;-0.30;71.50;;;;;;4149804;28;21228;-75
2021/12/20 03:54:55;;;;;;;6.43;1.55;;;-0.30;71.40;;;;;;4150444;28;20037;-75
2021/12/20 03:56:56;;;;;;;5.20;1.13;;;-0.30;71.30;;;;;;4165921;28;20099;-75
2021/12/20 03:58:57;;;;;;;6.93;1.33;;;-0.40;71.20;;;;;;4148860;28;20128;-75
2021/12/20 04:01:01;;;;;;;10.63;1.50;;;-0.40;72.00;;;;;;4134122;28;20081;-75
2021/12/20 04:03:07;;;;;;;6.97;1.27;;;-0.40;71.40;;;;;;4140334;28;20557;-76
2021/12/20 04:05:09;;;;;;;6.13;1.45;;;-0.40;71.30;;;;;;4149870;28;20451;-75
2021/12/20 04:07:09;;;;;;;7.03;1.15;;;-0.40;71.20;;;;;;4150234;28;20041;-75
2021/12/20 04:09:10;;;;;;;5.50;1.20;;;-0.40;71.20;;;;;;4150668;28;20041;-75
2021/12/20 04:11:11;;;;;;;7.57;1.48;;;-0.40;71.20;;;;;;4149371;28;20081;-75
2021/12/20 04:13:11;;;;;;;7.65;1.55;;;-0.40;71.30;;;;;;4131900;28;20081;-75
2021/12/20 04:15:15;;;;;;;9.88;1.60;;;-0.40;71.20;;;;;;4117518;28;20033;-76
2021/12/20 04:17:16;;;;;;;4.78;1.40;;;-0.50;71.10;;;;;;4134281;28;20038;-76
2021/12/20 04:19:17;;;;;;;12.52;2.17;;;-0.40;71.20;;;;;;4148303;28;20618;-76
2021/12/20 04:21:18;;;;;;;15.15;2.78;;;-0.50;71.20;;;;;;4149699;28;20075;-76
2021/12/20 04:23:18;;;;;;;18.42;3.90;;;-0.50;71.50;;;;;;4133764;28;20494;-75
2021/12/20 04:25:19;;;;;;;10.15;2.85;;;-0.50;71.60;;;;;;4149286;28;20033;-76
2021/12/20 04:27:20;;;;;;;11.32;2.47;;;-0.50;71.80;;;;;;4148222;28;20037;-75
2021/12/20 04:29:20;;;;;;;10.77;2.25;;;-0.50;71.90;;;;;;4115035;28;20146;-76
2021/12/20 04:31:21;;;;;;;9.95;1.42;;;-0.50;72.00;;;;;;4147173;28;20030;-76
2021/12/20 04:33:22;;;;;;;5.13;1.10;;;-0.50;72.00;;;;;;4147984;28;20040;-75
2021/12/20 04:35:22;;;;;;;6.70;1.52;;;-0.40;72.10;;;;;;4148847;28;20511;-76
2021/12/20 04:37:23;;;;;;;9.77;1.40;;;-0.40;72.10;;;;;;4139040;28;20034;-76
2021/12/20 04:39:28;;;;;;;8.90;1.25;;;-0.40;72.10;;;;;;4147260;28;20038;-75
2021/12/20 04:41:29;;;;;;;7.72;1.45;;;-0.40;72.00;;;;;;4148314;28;20030;-75
2021/12/20 04:43:32;;;;;;;6.57;1.38;;;-0.40;72.00;;;;;;4131915;28;20121;-76
2021/12/20 04:45:34;;;;;;;8.43;1.17;;;-0.40;71.90;;;;;;4115567;28;20105;-75
2021/12/20 04:47:34;;;;;;;13.57;1.38;;;-0.40;71.90;;;;;;4116989;28;20146;-78
2021/12/20 04:49:35;;;;;;;14.02;1.77;;;-0.40;71.80;;;;;;4149250;28;20114;-78
2021/12/20 04:51:36;;;;;;;6.43;1.23;;;-0.40;71.80;;;;;;4149808;28;20117;-76
2021/12/20 04:53:37;;;;;;;5.68;1.10;;;-0.40;71.70;;;;;;4148365;28;21137;-75
2021/12/20 04:55:37;;;;;;;15.32;2.25;;;-0.40;71.80;;;;;;4148922;28;20084;-75
2021/12/20 04:57:38;;;;;;;5.90;0.90;;;-0.40;71.80;;;;;;4147203;28;20056;-75
2021/12/20 04:59:39;;;;;;;5.20;1.30;;;-0.40;71.80;;;;;;4131644;28;20620;-76
2021/12/20 05:01:39;;;;;;;7.85;1.55;;;-0.40;71.90;;;;;;4144426;28;20029;-75
2021/12/20 05:03:40;;;;;;;5.65;1.63;;;-0.40;71.80;;;;;;4144319;28;20446;-76
2021/12/20 05:05:41;;;;;;;5.45;1.20;;;-0.40;71.70;;;;;;4150228;28;20030;-76
2021/12/20 05:07:43;;;;;;;6.65;1.67;;;-0.40;71.60;;;;;;4148716;28;20130;-76
2021/12/20 05:09:44;;;;;;;8.98;1.65;;;-0.40;71.60;;;;;;4121648;28;20515;-75
2021/12/20 05:11:50;;;;;;;7.25;1.83;;;-0.40;71.50;;;;;;4145223;28;20037;-76
2021/12/20 05:13:51;;;;;;;4.00;0.80;;;-0.40;71.50;;;;;;4146902;28;20077;-75
2021/12/20 05:15:51;;;;;;;7.15;1.10;;;-0.40;71.50;;;;;;4145118;28;20719;-75
2021/12/20 05:17:52;;;;;;;5.90;1.30;;;-0.40;71.40;;;;;;4144748;28;20042;-75
2021/12/20 05:19:52;;;;;;;9.57;1.98;;;-0.30;71.50;;;;;;4145203;28;20038;-75
2021/12/20 05:21:53;;;;;;;8.50;1.27;;;-0.40;71.40;;;;;;4130213;28;20030;-75
2021/12/20 05:23:54;;;;;;;7.70;1.52;;;-0.40;71.40;;;;;;4145400;28;20400;-75
2021/12/20 05:25:55;;;;;;;5.05;1.27;;;-0.30;71.30;;;;;;4161960;28;20033;-75
2021/12/20 05:27:56;;;;;;;11.55;1.70;;;-0.30;71.20;;;;;;4144513;28;20075;-75
2021/12/20 05:29:57;;;;;;;8.70;1.20;;;-0.40;71.00;;;;;;4161497;28;20033;-75
2021/12/20 05:31:58;;;;;;;8.57;1.20;;;-0.30;70.90;;;;;;4143443;28;20160;-75
2021/12/20 05:33:59;;;;;;;13.52;1.95;;;-0.40;70.70;;;;;;4128896;28;20030;-75
2021/12/20 05:35:59;;;;;;;9.23;1.45;;;-0.30;70.60;;;;;;4096747;28;20983;-75
2021/12/20 05:38:00;;;;;;;7.45;1.17;;;-0.30;70.60;;;;;;4146006;28;20104;-75
2021/12/20 05:40:00;;;;;;;4.18;1.05;;;-0.30;70.70;;;;;;4146108;28;20092;-75
2021/12/20 05:42:01;;;;;;;8.30;1.10;;;-0.30;70.80;;;;;;4126683;28;20030;-72
2021/12/20 05:44:02;;;;;;;13.65;1.33;;;-0.30;70.80;;;;;;4146388;28;20057;-73
2021/12/20 05:46:03;;;;;;;4.00;1.08;;;-0.40;70.80;;;;;;4145828;28;20044;-74
2021/12/20 05:48:04;;;;;;;8.40;1.40;;;-0.40;70.90;;;;;;4129130;28;20411;-73
2021/12/20 05:50:05;;;;;;;6.15;1.10;;;-0.40;70.90;;;;;;4146210;28;20490;-73
2021/12/20 05:52:06;;;;;;;6.30;1.75;;;-0.40;70.90;;;;;;4153577;28;20033;-73
2021/12/20 05:54:06;;;;;;;5.00;0.88;;;-0.40;70.90;;;;;;4145056;28;20028;-74
2021/12/20 05:56:07;;;;;;;10.25;1.27;;;-0.40;70.90;;;;;;4145677;28;20444;-72
2021/12/20 05:58:08;;;;;;;7.03;0.90;;;-0.40;71.10;;;;;;4147198;28;20551;-73
2021/12/20 06:00:14;;;;;;;3.38;0.80;;;-0.40;71.60;;;;;;4145286;28;20033;-73
2021/12/20 06:02:15;;;;;;;5.13;1.20;;;-0.40;71.80;;;;;;4139761;28;20040;-74
2021/12/20 06:04:15;;;;;;;8.07;1.33;;;-0.40;71.80;;;;;;4148507;28;20295;-74
2021/12/20 06:06:16;;;;;;;7.22;1.08;;;-0.40;71.70;;;;;;4149472;28;20038;-72
2021/12/20 06:08:17;;;;;;;7.97;1.15;;;-0.40;71.70;;;;;;4147219;28;20474;-74
2021/12/20 06:10:18;;;;;;;6.00;1.13;;;-0.40;71.60;;;;;;4148734;28;20037;-74
2021/12/20 06:12:18;;;;;;;8.35;1.10;;;-0.40;71.40;;;;;;4146032;28;20037;-72
2021/12/20 06:14:19;;;;;;;5.30;1.10;;;-0.40;72.10;;;;;;4141566;28;20044;-74
2021/12/20 06:16:19;;;;;;;7.05;0.90;;;-0.40;71.30;;;;;;4163131;28;20033;-73
2021/12/20 06:18:20;;;;;;;11.45;1.27;;;-0.40;71.40;;;;;;4147110;28;20459;-74
2021/12/20 06:20:21;;;;;;;7.25;1.17;;;-0.40;71.30;;;;;;4142610;28;20824;-73
2021/12/20 06:22:21;;;;;;;5.43;1.02;;;-0.40;71.20;;;;;;4146303;28;20037;-74
2021/12/20 06:24:23;;;;;;;7.32;1.25;;;-0.40;71.20;;;;;;4146703;28;20495;-73
2021/12/20 06:26:23;;;;;;;5.70;1.30;;;-0.40;71.00;;;;;;4145284;28;20033;-74
2021/12/20 06:28:24;;;;;;;3.60;1.13;;;-0.50;70.90;;;;;;4111399;28;20041;-73
2021/12/20 06:30:25;;;;;;;4.80;1.17;;;-0.50;70.90;;;;;;4123855;28;20473;-74
2021/12/20 06:32:25;;;;;;;4.32;0.90;;;-0.50;71.00;;;;;;4146093;28;20064;-74
2021/12/20 06:34:26;;;;;;;7.05;1.00;;;-0.50;71.30;;;;;;4135682;28;20037;-74
2021/12/20 06:36:29;;;;;;;5.63;1.02;;;-0.60;71.40;;;;;;4150845;28;20125;-73
2021/12/20 06:38:29;;;;;;;4.93;1.10;;;-0.60;71.60;;;;;;4146794;28;20112;-74
2021/12/20 06:40:31;;;;;;;4.57;1.13;;;-0.60;71.80;;;;;;4146554;28;20446;-74
2021/12/20 06:42:32;;;;;;;7.80;1.30;;;-0.60;71.90;;;;;;4132780;28;20034;-73
2021/12/20 06:44:32;;;;;;;8.40;1.42;;;-0.60;71.90;;;;;;4145953;28;20687;-74
2021/12/20 06:46:37;;;;;;;6.03;1.13;;;-0.60;71.90;;;;;;4146161;28;20103;-74
2021/12/20 06:48:38;;;;;;;7.25;1.13;;;-0.60;71.90;;;;;;4130768;28;20030;-74
2021/12/20 06:50:39;;;;;;;5.25;1.00;;;-0.60;72.10;;;;;;4145459;28;20041;-74
2021/12/20 06:52:39;;;;;;;3.90;0.88;;;-0.60;72.20;;;;;;4147649;28;20497;-74
2021/12/20 06:54:40;;;;;;;7.90;1.33;;;-0.60;72.20;;;;;;4147185;28;20045;-74
2021/12/20 06:56:41;;;;;;;9.95;1.23;;;-0.60;72.30;;;;;;4127690;28;20034;-73
2021/12/20 06:58:41;;;;;;;4.68;1.33;;;-0.60;72.20;;;;;;4145418;28;20716;-73
2021/12/20 07:00:42;;;;;;;4.05;0.95;;;-0.60;72.10;;;;;;4147566;28;20123;-73
2021/12/20 07:02:42;;;;;;;5.70;1.20;;;-0.70;72.00;;;;;;4149690;28;20056;-74
2021/12/20 07:04:43;;;;;;;8.18;1.48;;;-0.70;71.90;;;;;;4156050;28;20056;-74
2021/12/20 07:06:44;;;;;;;7.97;1.13;;;-0.70;71.90;;;;;;4146618;28;20042;-74
2021/12/20 07:08:44;;;;;;;5.10;1.20;;;-0.70;72.10;;;;;;4149629;28;20033;-73
2021/12/20 07:10:45;;;;;;;5.93;1.50;;;-0.80;72.10;;;;;;4149312;28;20033;-74
2021/12/20 07:12:46;;;;;;;6.65;1.38;;;-0.70;72.30;;;;;;4148852;28;20041;-73
2021/12/20 07:14:50;;;;;;;10.20;1.50;;;-0.80;72.40;;;;;;4147902;28;20310;-73
2021/12/20 07:16:50;;;;;;;6.82;1.40;;;-0.80;72.60;;;;;;4132869;28;20447;-73
2021/12/20 07:18:51;;;;;;;6.32;1.40;;;-0.80;72.80;;;;;;4147185;28;20042;-73
2021/12/20 07:20:51;;;;;;;8.93;1.25;;;-0.80;72.90;;;;;;4147143;28;20045;-74
2021/12/20 07:22:52;;;;;;;8.68;1.73;;;-0.80;73.90;;;;;;4147675;28;20053;-74
2021/12/20 07:24:52;;;;;;;6.28;1.55;;;-0.80;73.30;;;;;;4147446;28;20038;-72
2021/12/20 07:26:53;;;;;;;6.63;1.70;;;-0.90;73.40;;;;;;4130605;28;20049;-74
2021/12/20 07:28:54;;;;;;;3.47;0.90;;;-0.90;73.40;;;;;;4147738;28;20088;-73
2021/12/20 07:30:54;;;;;;;7.22;1.13;;;-0.90;73.60;;;;;;4143812;28;20044;-73
2021/12/20 07:32:55;;;;;;;3.72;1.20;;;-0.90;73.80;;;;;;4163696;28;20471;-73
2021/12/20 07:34:55;;;;;;;3.35;1.02;;;-0.80;74.00;;;;;;4143454;28;20112;-74
2021/12/20 07:36:56;;;;;;;8.18;1.58;;;-0.80;74.20;;;;;;4138944;28;20500;-73
2021/12/20 07:38:58;;;;;;;7.38;1.33;;;-0.80;74.30;;;;;;4139872;28;20032;-76
2021/12/20 07:40:58;;;;;;;4.97;1.35;;;-0.80;74.30;;;;;;4112343;28;20027;-74
2021/12/20 07:42:59;;;;;;;6.78;1.15;;;-0.80;74.20;;;;;;4120888;28;20587;-73
2021/12/20 07:45:00;;;;;;;4.88;1.23;;;-0.70;74.20;;;;;;4143316;28;20395;-74
2021/12/20 07:47:00;;;;;;;7.70;1.40;;;-0.70;74.00;;;;;;4144208;28;20053;-73
2021/12/20 07:49:01;;;;;;;6.13;1.40;;;-0.70;73.80;;;;;;4123560;28;20026;-73
2021/12/20 07:51:03;;;;;;;8.43;1.50;;;-0.70;73.70;;;;;;4144447;28;20029;-74
2021/12/20 07:53:03;;;;;;;9.02;1.30;;;-0.70;73.50;;;;;;4162212;28;20033;-73
2021/12/20 07:55:04;;;;;;;6.00;1.25;;;-0.60;73.50;;;;;;4149938;28;20495;-73
2021/12/20 07:57:05;;;;;;;9.88;1.25;;;-0.60;73.30;;;;;;4133758;28;20034;-74
2021/12/20 07:59:07;;;;;;;6.70;1.10;;;-0.60;73.00;;;;;;4129877;28;20543;-73
2021/12/20 08:01:07;;;;;;;6.82;1.30;;;-0.60;72.70;;;;;;4141982;28;20523;-74
2021/12/20 08:03:09;;;;;;;7.70;1.20;;;-0.60;72.70;;;;;;4149923;28;20033;-74
2021/12/20 08:05:10;;;;;;;4.63;0.90;;;-0.60;72.60;;;;;;4142405;28;20113;-74
2021/12/20 08:07:11;;;;;;;11.25;1.20;;;-0.60;72.50;;;;;;4144933;28;20139;-74
2021/12/20 08:09:15;;;;;;;12.18;1.67;;;-0.60;72.50;;;;;;4150205;28;20037;-74
2021/12/20 08:11:15;;;;;;;9.95;1.23;;;-0.60;72.60;;;;;;4124281;28;20041;-74
2021/12/20 08:13:16;;;;;;;6.32;1.38;;;-0.70;72.60;;;;;;4141911;28;20041;-73
2021/12/20 08:15:17;;;;;;;6.55;1.10;;;-0.60;73.00;;;;;;4142058;28;20041;-74
2021/12/20 08:17:17;;;;;;;7.43;1.23;;;-0.60;73.20;;;;;;4125708;28;20103;-74
2021/12/20 08:19:18;;;;;;;5.15;1.30;;;-0.60;73.40;;;;;;4144489;28;20029;-74
2021/12/20 08:21:19;;;;;;;9.82;1.55;;;-0.60;73.50;;;;;;4139393;28;20368;-74
2021/12/20 08:23:20;;;;;;;11.90;1.35;;;-0.60;73.40;;;;;;4138067;28;20026;-74
2021/12/20 08:25:21;;;;;;;8.32;1.40;;;-0.60;73.40;;;;;;4146891;28;20026;-73
2021/12/20 08:27:21;;;;;;;13.50;1.35;;;-0.60;73.50;;;;;;4141173;28;20037;-74
2021/12/20 08:29:23;;;;;;;5.78;1.23;;;-0.50;73.50;;;;;;4140032;28;20032;-73
2021/12/20 08:31:24;;;;;;;10.13;1.50;;;-0.50;73.60;;;;;;4144258;28;20449;-74
2021/12/20 08:33:25;;;;;;;9.32;1.45;;;-0.50;73.70;;;;;;4132820;28;20030;-74
2021/12/20 08:35:25;;;;;;;4.25;1.10;;;-0.50;73.70;;;;;;4129121;23;1282410;-73
2021/12/20 08:37:26;;;;;;;11.02;1.77;;;-0.40;73.70;;;;;;4126783;28;20022;-74
2021/12/20 08:39:28;;;;;;;8.27;1.42;;;-0.40;73.70;;;;;;4126384;28;20049;-73
2021/12/20 08:41:29;;;;;;;4.00;1.40;;;-0.40;73.50;;;;;;4124548;28;20047;-74
2021/12/20 08:43:29;;;;;;;13.75;1.58;;;-0.40;73.50;;;;;;4126897;28;20034;-74
2021/12/20 08:45:30;;;;;;;6.05;1.63;;;-0.30;73.30;;;;;;4139889;28;20149;-74
2021/12/20 08:47:32;;;;;;;5.18;1.85;;;-0.20;73.30;;;;;;4129431;28;20093;-74
2021/12/20 08:49:33;;;;;;;7.68;1.35;;;-0.20;73.20;;;;;;4152689;28;20026;-74
2021/12/20 08:51:34;;;;;;;5.18;1.40;;;-0.20;73.00;;;;;;4126223;28;20408;-74
2021/12/20 08:53:35;;;;;;;6.72;1.20;;;-0.20;72.90;;;;;;4114008;28;20069;-74
2021/12/20 08:55:37;;;;;;;4.55;1.10;;;-0.20;72.90;;;;;;4148701;28;20037;-74
2021/12/20 08:57:39;;;;;;;5.03;1.13;;;-0.20;72.80;;;;;;4130883;28;20026;-73
2021/12/20 08:59:40;;;;;;;5.07;1.20;;;-0.10;72.70;;;;;;4131367;28;20544;-74
2021/12/20 09:01:40;;;;;;;3.72;1.42;;;-0.10;72.60;;;;;;4129363;28;20034;-73
2021/12/20 09:03:41;;;;;;;6.53;1.25;;;-0.10;72.60;;;;;;4129687;28;20015;-73
2021/12/20 09:05:41;;;;;;;6.25;1.30;;;-0.10;72.60;;;;;;4129861;28;20030;-74
2021/12/20 09:07:42;;;;;;;5.32;0.98;;;0.00;72.70;;;;;;4126593;28;20027;-73
2021/12/20 09:09:44;;;;;;;5.20;1.15;;;0.00;72.70;;;;;;4131666;28;20049;-73
2021/12/20 09:11:45;;;;;;;3.90;1.10;;;0.00;72.60;;;;;;4128599;28;20038;-73
2021/12/20 09:13:45;;;;;;;7.38;1.38;;;0.10;72.60;;;;;;4161629;28;20030;-73
2021/12/20 09:15:46;;;;;;;3.65;0.98;;;0.10;72.70;;;;;;4132926;28;20105;-74
2021/12/20 09:17:49;;;;;;;10.57;1.23;;;0.10;72.70;;;;;;4125070;28;20023;-74
2021/12/20 09:19:51;;;;;;;9.73;1.52;;;0.20;72.70;;;;;;4119461;28;20039;-74
2021/12/20 09:21:52;;;;;;;4.15;1.05;;;0.20;72.70;;;;;;4129068;28;20038;-74
2021/12/20 09:23:53;;;;;;;6.72;1.35;;;0.30;72.80;;;;;;4117395;28;20030;-74
2021/12/20 09:25:53;;;;;;;4.75;1.27;;;0.30;72.70;;;;;;4130378;28;20026;-73
2021/12/20 09:27:55;;;;;;;5.50;1.00;;;0.30;72.70;;;;;;4127282;28;20164;-73
2021/12/20 09:29:56;;;;;;;3.95;1.02;;;0.40;73.30;;;;;;4159238;28;20116;-73
2021/12/20 09:31:57;;;;;;;7.22;1.27;;;0.40;72.50;;;;;;4126738;28;20045;-73
2021/12/20 09:33:58;;;;;;;6.38;1.35;;;0.50;72.40;;;;;;4128320;28;20038;-73
2021/12/20 09:35:59;;;;;;;5.10;1.48;;;0.50;72.20;;;;;;4128014;28;20104;-73
2021/12/20 09:38:00;;;;;;;6.30;1.40;;;0.50;72.00;;;;;;4155638;28;20080;-73
2021/12/20 09:40:01;;;;;;;10.20;1.73;;;0.60;71.90;;;;;;4126941;28;20121;-73
2021/12/20 09:42:02;;;;;;;9.05;1.90;;;0.60;71.80;;;;;;4131568;28;20510;-73
2021/12/20 09:44:03;;;;;;;5.75;1.30;;;0.70;71.70;;;;;;4133828;28;20026;-73
2021/12/20 09:46:04;;;;;;;7.25;1.23;;;0.70;71.60;;;;;;4130573;28;20061;-73
2021/12/20 09:48:04;;;;;;;6.15;1.20;;;0.70;71.40;;;;;;4128558;28;20460;-74
2021/12/20 09:50:06;;;;;;;10.57;1.63;;;0.80;71.30;;;;;;4123798;28;20121;-74
2021/12/20 09:52:07;;;;;;;6.82;0.80;;;0.80;71.30;;;;;;4133637;28;20041;-73
2021/12/20 09:54:07;;;;;;;7.60;1.38;;;0.90;71.20;;;;;;4167539;28;20034;-74
2021/12/20 09:56:08;;;;;;;8.88;1.60;;;0.90;71.20;;;;;;4110648;28;20432;-74
2021/12/20 09:58:08;;;;;;;6.80;1.45;;;0.90;71.10;;;;;;4163113;28;20029;-74
2021/12/20 10:00:10;;;;;;;5.18;1.42;;;1.00;70.80;;;;;;4129269;28;20034;-74
2021/12/20 10:02:11;;;;;;;8.85;1.27;;;1.00;70.60;;;;;;4130390;28;20407;-74
2021/12/20 10:04:12;;;;;;;6.45;1.20;;;1.10;70.40;;;;;;4126918;28;20023;-73
2021/12/20 10:06:13;;;;;;;7.07;0.93;;;1.10;70.50;;;;;;4159344;28;20130;-73
2021/12/20 10:08:16;;;;;;;4.53;1.30;;;1.20;70.50;;;;;;4125045;28;20030;-73
2021/12/20 10:10:37;;;;;;;13.70;1.52;;;1.20;70.40;;;;;;4126102;28;20037;-74
2021/12/20 10:12:47;;;;;;;6.10;1.13;;;1.30;70.30;;;;;;4127705;28;20619;-73
2021/12/20 10:14:55;;;;;;;6.88;1.83;;;1.30;70.20;;;;;;4125332;28;20467;-73
2021/12/20 10:17:02;;;;;;;9.23;1.60;;;1.40;70.20;;;;;;4128196;28;20089;-73
2021/12/20 10:19:04;;;;;;;3.03;1.17;;;1.40;70.10;;;;;;4146418;28;20021;-74
2021/12/20 10:21:04;;;;;;;2.47;1.02;;;1.40;70.00;;;;;;4142768;28;20033;-74
2021/12/20 10:23:17;;;;;;;4.07;1.02;;;1.50;70.10;;;;;;4136143;28;20480;-74
2021/12/20 10:25:28;;;;;;;5.15;1.10;;;1.50;70.10;;;;;;4141377;28;20025;-73
2021/12/20 10:27:32;;;;;;;2.60;1.20;;;1.50;70.10;;;;;;4125700;28;20122;-74
2021/12/20 10:29:36;;;;;;;5.93;1.38;;;1.50;69.90;;;;;;4140641;28;20072;-74
2021/12/20 10:31:36;;;;;;;3.85;1.20;;;1.60;70.00;;;;;;4123522;28;20173;-74
2021/12/20 10:33:37;;;;;;;9.23;0.93;;;1.60;69.80;;;;;;4134222;28;20033;-74
2021/12/20 10:35:40;;;;;;;3.17;1.20;;;1.60;69.70;;;;;;4158778;28;20124;-74
2021/12/20 10:37:40;;;;;;;7.43;1.20;;;1.70;69.80;;;;;;4123813;28;20117;-74
2021/12/20 10:39:45;;;;;;;4.57;1.30;;;1.70;69.70;;;;;;4122706;28;20488;-74
2021/12/20 10:41:51;;;;;;;5.72;1.13;;;1.70;69.80;;;;;;4110003;28;20130;-74
2021/12/20 10:43:54;;;;;;;3.20;1.40;;;1.80;69.70;;;;;;4135753;28;20026;-74
2021/12/20 10:45:55;;;;;;;7.43;1.65;;;1.80;69.60;;;;;;4111320;28;20062;-73
2021/12/20 10:47:56;;;;;;;6.22;1.30;;;1.80;69.50;;;;;;4126550;28;20031;-74